sensor_id;sensor_type;location;lat;lon;timestamp;P1;durP1;ratioP1;P2;durP2;ratioP2
48727;SDS011;34527;45.618;5.130;2023-12-29T00:01:29;7.15;;;5.35;;
48727;SDS011;34527;45.618;5.130;2023-12-29T00:03:55;6.70;;;4.95;;
48727;SDS011;34527;45.618;5.130;2023-12-29T00:06:21;6.65;;;5.10;;
48727;SDS011;34527;45.618;5.130;2023-12-29T00:08:47;7.35;;;5.13;;
48727;SDS011;34527;45.618;5.130;2023-12-29T00:11:16;7.10;;;4.97;;
48727;SDS011;34527;45.618;5.130;2023-12-29T00:13:42;7.50;;;5.07;;
48727;SDS011;34527;45.618;5.130;2023-12-29T00:16:08;6.70;;;5.18;;
48727;SDS011;34527;45.618;5.130;2023-12-29T00:18:34;5.95;;;4.93;;
48727;SDS011;34527;45.618;5.130;2023-12-29T00:21:02;8.43;;;4.90;;
48727;SDS011;34527;45.618;5.130;2023-12-29T00:23:28;8.25;;;4.90;;
48727;SDS011;34527;45.618;5.130;2023-12-29T00:25:53;7.45;;;4.78;;
48727;SDS011;34527;45.618;5.130;2023-12-29T00:28:19;4.93;;;4.45;;
48727;SDS011;34527;45.618;5.130;2023-12-29T00:30:44;6.63;;;4.53;;
48727;SDS011;34527;45.618;5.130;2023-12-29T00:33:10;6.20;;;4.72;;
48727;SDS011;34527;45.618;5.130;2023-12-29T00:35:38;6.70;;;5.03;;
48727;SDS011;34527;45.618;5.130;2023-12-29T00:38:05;6.78;;;4.75;;
48727;SDS011;34527;45.618;5.130;2023-12-29T00:40:31;5.38;;;4.82;;
48727;SDS011;34527;45.618;5.130;2023-12-29T00:42:57;7.45;;;5.38;;
48727;SDS011;34527;45.618;5.130;2023-12-29T00:45:22;6.85;;;4.47;;
48727;SDS011;34527;45.618;5.130;2023-12-29T00:47:48;7.45;;;4.90;;
48727;SDS011;34527;45.618;5.130;2023-12-29T00:50:15;4.95;;;4.45;;
48727;SDS011;34527;45.618;5.130;2023-12-29T00:52:41;6.72;;;4.20;;
48727;SDS011;34527;45.618;5.130;2023-12-29T00:55:07;5.35;;;4.10;;
48727;SDS011;34527;45.618;5.130;2023-12-29T00:57:32;7.10;;;4.63;;
48727;SDS011;34527;45.618;5.130;2023-12-29T00:59:59;7.40;;;4.22;;
48727;SDS011;34527;45.618;5.130;2023-12-29T01:02:26;6.22;;;4.50;;
48727;SDS011;34527;45.618;5.130;2023-12-29T01:04:51;6.43;;;4.90;;
48727;SDS011;34527;45.618;5.130;2023-12-29T01:07:17;7.35;;;4.85;;
48727;SDS011;34527;45.618;5.130;2023-12-29T01:09:43;8.50;;;5.18;;
48727;SDS011;34527;45.618;5.130;2023-12-29T01:12:08;7.38;;;5.07;;
48727;SDS011;34527;45.618;5.130;2023-12-29T01:14:34;7.00;;;4.93;;
48727;SDS011;34527;45.618;5.130;2023-12-29T01:17:00;6.15;;;4.75;;
48727;SDS011;34527;45.618;5.130;2023-12-29T01:19:26;7.35;;;4.95;;
48727;SDS011;34527;45.618;5.130;2023-12-29T01:21:52;6.78;;;5.07;;
48727;SDS011;34527;45.618;5.130;2023-12-29T01:24:17;5.55;;;4.53;;
48727;SDS011;34527;45.618;5.130;2023-12-29T01:26:43;7.57;;;4.55;;
48727;SDS011;34527;45.618;5.130;2023-12-29T01:29:08;7.80;;;4.93;;
48727;SDS011;34527;45.618;5.130;2023-12-29T01:31:34;7.90;;;4.80;;
48727;SDS011;34527;45.618;5.130;2023-12-29T01:33:59;7.70;;;4.45;;
48727;SDS011;34527;45.618;5.130;2023-12-29T01:36:25;5.38;;;4.70;;
48727;SDS011;34527;45.618;5.130;2023-12-29T01:38:51;7.00;;;4.82;;
48727;SDS011;34527;45.618;5.130;2023-12-29T01:41:19;7.30;;;5.18;;
48727;SDS011;34527;45.618;5.130;2023-12-29T01:46:23;6.57;;;4.80;;
48727;SDS011;34527;45.618;5.130;2023-12-29T01:48:50;8.60;;;5.63;;
48727;SDS011;34527;45.618;5.130;2023-12-29T01:51:17;8.05;;;5.75;;
48727;SDS011;34527;45.618;5.130;2023-12-29T01:53:43;9.25;;;5.45;;
48727;SDS011;34527;45.618;5.130;2023-12-29T01:56:09;7.05;;;5.63;;
48727;SDS011;34527;45.618;5.130;2023-12-29T01:58:35;7.63;;;5.38;;
48727;SDS011;34527;45.618;5.130;2023-12-29T02:01:02;8.13;;;5.68;;
48727;SDS011;34527;45.618;5.130;2023-12-29T02:03:29;7.22;;;5.70;;
48727;SDS011;34527;45.618;5.130;2023-12-29T02:05:55;8.07;;;5.70;;
48727;SDS011;34527;45.618;5.130;2023-12-29T02:08:22;9.63;;;5.93;;
48727;SDS011;34527;45.618;5.130;2023-12-29T02:10:48;8.32;;;5.55;;
48727;SDS011;34527;45.618;5.130;2023-12-29T02:13:14;7.43;;;5.43;;
48727;SDS011;34527;45.618;5.130;2023-12-29T02:15:40;7.40;;;5.63;;
48727;SDS011;34527;45.618;5.130;2023-12-29T02:18:06;6.78;;;5.03;;
48727;SDS011;34527;45.618;5.130;2023-12-29T02:20:35;8.18;;;5.38;;
48727;SDS011;34527;45.618;5.130;2023-12-29T02:23:01;6.22;;;5.55;;
48727;SDS011;34527;45.618;5.130;2023-12-29T02:25:27;6.88;;;5.15;;
48727;SDS011;34527;45.618;5.130;2023-12-29T02:30:41;5.50;;;4.85;;
48727;SDS011;34527;45.618;5.130;2023-12-29T02:33:17;6.95;;;4.97;;
48727;SDS011;34527;45.618;5.130;2023-12-29T02:35:45;5.95;;;5.10;;
48727;SDS011;34527;45.618;5.130;2023-12-29T02:38:11;6.93;;;5.10;;
48727;SDS011;34527;45.618;5.130;2023-12-29T02:40:38;5.75;;;4.97;;
48727;SDS011;34527;45.618;5.130;2023-12-29T02:43:04;7.70;;;5.25;;
48727;SDS011;34527;45.618;5.130;2023-12-29T02:45:29;6.63;;;5.00;;
48727;SDS011;34527;45.618;5.130;2023-12-29T02:47:55;6.28;;;4.65;;
48727;SDS011;34527;45.618;5.130;2023-12-29T02:50:21;5.20;;;4.40;;
48727;SDS011;34527;45.618;5.130;2023-12-29T02:52:46;7.55;;;4.85;;
48727;SDS011;34527;45.618;5.130;2023-12-29T02:55:12;6.10;;;4.72;;
48727;SDS011;34527;45.618;5.130;2023-12-29T02:57:38;4.70;;;4.22;;
48727;SDS011;34527;45.618;5.130;2023-12-29T03:00:04;6.55;;;4.47;;
48727;SDS011;34527;45.618;5.130;2023-12-29T03:02:31;8.73;;;4.78;;
48727;SDS011;34527;45.618;5.130;2023-12-29T03:04:57;6.50;;;4.28;;
48727;SDS011;34527;45.618;5.130;2023-12-29T03:07:23;7.72;;;4.40;;
48727;SDS011;34527;45.618;5.130;2023-12-29T03:09:49;6.05;;;4.60;;
48727;SDS011;34527;45.618;5.130;2023-12-29T03:12:14;4.95;;;4.45;;
48727;SDS011;34527;45.618;5.130;2023-12-29T03:14:40;5.63;;;5.03;;
48727;SDS011;34527;45.618;5.130;2023-12-29T03:17:05;6.35;;;4.63;;
48727;SDS011;34527;45.618;5.130;2023-12-29T03:19:31;6.50;;;4.75;;
48727;SDS011;34527;45.618;5.130;2023-12-29T03:21:57;8.07;;;5.00;;
48727;SDS011;34527;45.618;5.130;2023-12-29T03:24:22;8.15;;;4.88;;
48727;SDS011;34527;45.618;5.130;2023-12-29T03:26:48;7.03;;;5.30;;
48727;SDS011;34527;45.618;5.130;2023-12-29T03:29:13;9.93;;;5.45;;
48727;SDS011;34527;45.618;5.130;2023-12-29T03:31:39;8.48;;;6.05;;
48727;SDS011;34527;45.618;5.130;2023-12-29T03:34:05;9.57;;;5.63;;
48727;SDS011;34527;45.618;5.130;2023-12-29T03:36:30;8.82;;;5.35;;
48727;SDS011;34527;45.618;5.130;2023-12-29T03:38:56;7.07;;;5.38;;
48727;SDS011;34527;45.618;5.130;2023-12-29T03:41:22;6.00;;;5.40;;
48727;SDS011;34527;45.618;5.130;2023-12-29T03:43:48;8.90;;;5.65;;
48727;SDS011;34527;45.618;5.130;2023-12-29T03:46:17;7.03;;;5.90;;
48727;SDS011;34527;45.618;5.130;2023-12-29T03:48:43;7.93;;;5.72;;
48727;SDS011;34527;45.618;5.130;2023-12-29T03:51:09;6.20;;;5.30;;
48727;SDS011;34527;45.618;5.130;2023-12-29T03:53:34;9.68;;;5.90;;
48727;SDS011;34527;45.618;5.130;2023-12-29T03:56:03;8.80;;;5.72;;
48727;SDS011;34527;45.618;5.130;2023-12-29T03:58:30;8.90;;;6.13;;
48727;SDS011;34527;45.618;5.130;2023-12-29T04:00:56;8.73;;;6.03;;
48727;SDS011;34527;45.618;5.130;2023-12-29T04:03:21;7.85;;;6.13;;
48727;SDS011;34527;45.618;5.130;2023-12-29T04:05:47;7.60;;;6.25;;
48727;SDS011;34527;45.618;5.130;2023-12-29T04:08:12;7.57;;;6.60;;
48727;SDS011;34527;45.618;5.130;2023-12-29T04:10:38;9.10;;;6.55;;
48727;SDS011;34527;45.618;5.130;2023-12-29T04:13:04;9.07;;;7.05;;
48727;SDS011;34527;45.618;5.130;2023-12-29T04:15:30;10.40;;;7.38;;
48727;SDS011;34527;45.618;5.130;2023-12-29T04:17:55;12.65;;;7.90;;
48727;SDS011;34527;45.618;5.130;2023-12-29T04:20:21;8.95;;;7.35;;
48727;SDS011;34527;45.618;5.130;2023-12-29T04:22:47;9.35;;;7.40;;
48727;SDS011;34527;45.618;5.130;2023-12-29T04:25:12;13.75;;;7.88;;
48727;SDS011;34527;45.618;5.130;2023-12-29T04:27:39;11.65;;;7.78;;
48727;SDS011;34527;45.618;5.130;2023-12-29T04:30:05;11.43;;;8.38;;
48727;SDS011;34527;45.618;5.130;2023-12-29T04:32:31;10.80;;;8.13;;
48727;SDS011;34527;45.618;5.130;2023-12-29T04:34:57;9.80;;;8.00;;
48727;SDS011;34527;45.618;5.130;2023-12-29T04:37:22;12.38;;;8.10;;
48727;SDS011;34527;45.618;5.130;2023-12-29T04:39:48;10.23;;;7.95;;
48727;SDS011;34527;45.618;5.130;2023-12-29T04:42:14;8.40;;;7.53;;
48727;SDS011;34527;45.618;5.130;2023-12-29T04:44:39;11.50;;;8.00;;
48727;SDS011;34527;45.618;5.130;2023-12-29T04:47:05;10.43;;;7.00;;
48727;SDS011;34527;45.618;5.130;2023-12-29T04:49:30;11.20;;;7.05;;
48727;SDS011;34527;45.618;5.130;2023-12-29T04:51:56;7.72;;;6.72;;
48727;SDS011;34527;45.618;5.130;2023-12-29T04:54:22;10.52;;;7.43;;
48727;SDS011;34527;45.618;5.130;2023-12-29T04:56:48;9.07;;;7.57;;
48727;SDS011;34527;45.618;5.130;2023-12-29T04:59:14;9.85;;;7.57;;
48727;SDS011;34527;45.618;5.130;2023-12-29T05:01:39;7.22;;;6.50;;
48727;SDS011;34527;45.618;5.130;2023-12-29T05:04:05;9.55;;;6.82;;
48727;SDS011;34527;45.618;5.130;2023-12-29T05:06:30;9.63;;;7.03;;
48727;SDS011;34527;45.618;5.130;2023-12-29T05:08:56;10.55;;;6.68;;
48727;SDS011;34527;45.618;5.130;2023-12-29T05:11:22;8.45;;;6.40;;
48727;SDS011;34527;45.618;5.130;2023-12-29T05:13:47;8.68;;;7.00;;
48727;SDS011;34527;45.618;5.130;2023-12-29T05:16:13;8.32;;;6.47;;
48727;SDS011;34527;45.618;5.130;2023-12-29T05:18:39;9.77;;;6.65;;
48727;SDS011;34527;45.618;5.130;2023-12-29T05:21:05;8.50;;;6.75;;
48727;SDS011;34527;45.618;5.130;2023-12-29T05:23:30;8.93;;;7.18;;
48727;SDS011;34527;45.618;5.130;2023-12-29T05:25:56;7.85;;;6.75;;
48727;SDS011;34527;45.618;5.130;2023-12-29T05:28:22;10.45;;;7.43;;
48727;SDS011;34527;45.618;5.130;2023-12-29T05:30:47;8.75;;;6.55;;
48727;SDS011;34527;45.618;5.130;2023-12-29T05:33:13;8.90;;;6.63;;
48727;SDS011;34527;45.618;5.130;2023-12-29T05:35:39;8.32;;;7.25;;
48727;SDS011;34527;45.618;5.130;2023-12-29T05:38:04;9.40;;;6.38;;
48727;SDS011;34527;45.618;5.130;2023-12-29T05:40:30;10.68;;;7.32;;
48727;SDS011;34527;45.618;5.130;2023-12-29T05:42:56;9.32;;;6.97;;
48727;SDS011;34527;45.618;5.130;2023-12-29T05:45:21;9.82;;;7.50;;
48727;SDS011;34527;45.618;5.130;2023-12-29T05:47:47;8.73;;;6.82;;
48727;SDS011;34527;45.618;5.130;2023-12-29T05:50:12;10.00;;;7.03;;
48727;SDS011;34527;45.618;5.130;2023-12-29T05:52:38;8.23;;;7.05;;
48727;SDS011;34527;45.618;5.130;2023-12-29T05:55:04;14.20;;;8.07;;
48727;SDS011;34527;45.618;5.130;2023-12-29T05:57:29;9.27;;;7.55;;
48727;SDS011;34527;45.618;5.130;2023-12-29T05:59:55;10.73;;;7.75;;
48727;SDS011;34527;45.618;5.130;2023-12-29T06:02:21;8.75;;;7.13;;
48727;SDS011;34527;45.618;5.130;2023-12-29T06:04:46;11.80;;;8.73;;
48727;SDS011;34527;45.618;5.130;2023-12-29T06:07:12;12.35;;;8.68;;
48727;SDS011;34527;45.618;5.130;2023-12-29T06:09:38;11.48;;;8.50;;
48727;SDS011;34527;45.618;5.130;2023-12-29T06:12:03;11.98;;;9.13;;
48727;SDS011;34527;45.618;5.130;2023-12-29T06:14:29;11.10;;;8.52;;
48727;SDS011;34527;45.618;5.130;2023-12-29T06:16:55;13.80;;;8.80;;
48727;SDS011;34527;45.618;5.130;2023-12-29T06:19:21;12.60;;;9.45;;
48727;SDS011;34527;45.618;5.130;2023-12-29T06:21:46;11.90;;;9.57;;
48727;SDS011;34527;45.618;5.130;2023-12-29T06:24:12;14.05;;;9.98;;
48727;SDS011;34527;45.618;5.130;2023-12-29T06:26:38;10.63;;;9.02;;
48727;SDS011;34527;45.618;5.130;2023-12-29T06:29:08;11.90;;;9.60;;
48727;SDS011;34527;45.618;5.130;2023-12-29T06:31:34;11.30;;;8.95;;
48727;SDS011;34527;45.618;5.130;2023-12-29T06:33:59;10.57;;;9.15;;
48727;SDS011;34527;45.618;5.130;2023-12-29T06:36:25;12.00;;;8.98;;
48727;SDS011;34527;45.618;5.130;2023-12-29T06:38:51;10.13;;;8.45;;
48727;SDS011;34527;45.618;5.130;2023-12-29T06:41:17;11.68;;;7.90;;
48727;SDS011;34527;45.618;5.130;2023-12-29T06:43:44;9.25;;;7.95;;
48727;SDS011;34527;45.618;5.130;2023-12-29T06:46:10;9.70;;;7.85;;
48727;SDS011;34527;45.618;5.130;2023-12-29T06:48:38;8.60;;;7.38;;
48727;SDS011;34527;45.618;5.130;2023-12-29T06:51:04;8.93;;;8.02;;
48727;SDS011;34527;45.618;5.130;2023-12-29T06:53:30;9.48;;;7.22;;
48727;SDS011;34527;45.618;5.130;2023-12-29T06:55:56;9.10;;;6.97;;
48727;SDS011;34527;45.618;5.130;2023-12-29T06:58:22;9.43;;;7.53;;
48727;SDS011;34527;45.618;5.130;2023-12-29T07:00:47;9.93;;;7.30;;
48727;SDS011;34527;45.618;5.130;2023-12-29T07:03:13;10.40;;;7.03;;
48727;SDS011;34527;45.618;5.130;2023-12-29T07:05:40;8.30;;;7.13;;
48727;SDS011;34527;45.618;5.130;2023-12-29T07:08:05;9.88;;;7.65;;
48727;SDS011;34527;45.618;5.130;2023-12-29T07:10:31;8.40;;;7.50;;
48727;SDS011;34527;45.618;5.130;2023-12-29T07:12:57;8.07;;;7.00;;
48727;SDS011;34527;45.618;5.130;2023-12-29T07:15:22;10.45;;;6.82;;
48727;SDS011;34527;45.618;5.130;2023-12-29T07:17:48;10.38;;;7.70;;
48727;SDS011;34527;45.618;5.130;2023-12-29T07:20:14;8.00;;;7.18;;
48727;SDS011;34527;45.618;5.130;2023-12-29T07:22:40;12.45;;;7.47;;
48727;SDS011;34527;45.618;5.130;2023-12-29T07:25:06;10.82;;;7.05;;
48727;SDS011;34527;45.618;5.130;2023-12-29T07:27:32;10.77;;;7.10;;
48727;SDS011;34527;45.618;5.130;2023-12-29T07:29:57;7.70;;;6.38;;
48727;SDS011;34527;45.618;5.130;2023-12-29T07:32:23;6.82;;;6.13;;
48727;SDS011;34527;45.618;5.130;2023-12-29T07:34:49;6.47;;;5.70;;
48727;SDS011;34527;45.618;5.130;2023-12-29T07:37:14;9.75;;;7.40;;
48727;SDS011;34527;45.618;5.130;2023-12-29T07:39:40;8.27;;;6.63;;
48727;SDS011;34527;45.618;5.130;2023-12-29T07:42:06;8.10;;;6.00;;
48727;SDS011;34527;45.618;5.130;2023-12-29T07:44:32;8.48;;;6.22;;
48727;SDS011;34527;45.618;5.130;2023-12-29T07:46:58;7.82;;;6.20;;
48727;SDS011;34527;45.618;5.130;2023-12-29T07:49:23;8.00;;;5.75;;
48727;SDS011;34527;45.618;5.130;2023-12-29T07:51:49;7.38;;;5.45;;
48727;SDS011;34527;45.618;5.130;2023-12-29T07:54:15;7.72;;;6.18;;
48727;SDS011;34527;45.618;5.130;2023-12-29T07:56:41;6.00;;;5.40;;
48727;SDS011;34527;45.618;5.130;2023-12-29T07:59:06;6.50;;;5.28;;
48727;SDS011;34527;45.618;5.130;2023-12-29T08:01:32;8.63;;;6.32;;
48727;SDS011;34527;45.618;5.130;2023-12-29T08:03:58;10.25;;;6.68;;
48727;SDS011;34527;45.618;5.130;2023-12-29T08:06:23;7.75;;;5.97;;
48727;SDS011;34527;45.618;5.130;2023-12-29T08:08:49;9.68;;;6.45;;
48727;SDS011;34527;45.618;5.130;2023-12-29T08:11:15;9.48;;;6.30;;
48727;SDS011;34527;45.618;5.130;2023-12-29T08:13:41;9.40;;;6.88;;
48727;SDS011;34527;45.618;5.130;2023-12-29T08:16:08;10.18;;;6.97;;
48727;SDS011;34527;45.618;5.130;2023-12-29T08:18:33;10.32;;;6.65;;
48727;SDS011;34527;45.618;5.130;2023-12-29T08:20:59;14.65;;;8.82;;
48727;SDS011;34527;45.618;5.130;2023-12-29T08:23:25;16.85;;;10.32;;
48727;SDS011;34527;45.618;5.130;2023-12-29T08:25:52;11.07;;;8.27;;
48727;SDS011;34527;45.618;5.130;2023-12-29T08:28:17;9.10;;;6.72;;
48727;SDS011;34527;45.618;5.130;2023-12-29T08:30:43;10.20;;;8.55;;
48727;SDS011;34527;45.618;5.130;2023-12-29T08:33:11;12.10;;;9.02;;
48727;SDS011;34527;45.618;5.130;2023-12-29T08:35:38;9.27;;;7.90;;
48727;SDS011;34527;45.618;5.130;2023-12-29T08:38:04;10.10;;;8.02;;
48727;SDS011;34527;45.618;5.130;2023-12-29T08:40:30;11.00;;;6.97;;
48727;SDS011;34527;45.618;5.130;2023-12-29T08:42:56;10.82;;;6.50;;
48727;SDS011;34527;45.618;5.130;2023-12-29T08:45:22;7.45;;;5.80;;
48727;SDS011;34527;45.618;5.130;2023-12-29T08:47:47;7.50;;;5.60;;
48727;SDS011;34527;45.618;5.130;2023-12-29T08:50:13;11.85;;;7.60;;
48727;SDS011;34527;45.618;5.130;2023-12-29T08:52:39;11.00;;;7.43;;
48727;SDS011;34527;45.618;5.130;2023-12-29T08:55:05;10.18;;;7.68;;
48727;SDS011;34527;45.618;5.130;2023-12-29T08:57:31;11.10;;;7.75;;
48727;SDS011;34527;45.618;5.130;2023-12-29T08:59:57;11.73;;;8.27;;
48727;SDS011;34527;45.618;5.130;2023-12-29T09:02:22;12.75;;;7.47;;
48727;SDS011;34527;45.618;5.130;2023-12-29T09:04:48;7.60;;;6.80;;
48727;SDS011;34527;45.618;5.130;2023-12-29T09:07:13;8.05;;;5.90;;
48727;SDS011;34527;45.618;5.130;2023-12-29T09:09:39;8.13;;;5.40;;
48727;SDS011;34527;45.618;5.130;2023-12-29T09:12:04;6.03;;;5.43;;
48727;SDS011;34527;45.618;5.130;2023-12-29T09:14:30;8.05;;;6.18;;
48727;SDS011;34527;45.618;5.130;2023-12-29T09:16:57;6.22;;;5.50;;
48727;SDS011;34527;45.618;5.130;2023-12-29T09:19:23;8.30;;;6.40;;
48727;SDS011;34527;45.618;5.130;2023-12-29T09:21:50;7.20;;;5.63;;
48727;SDS011;34527;45.618;5.130;2023-12-29T09:24:15;6.97;;;5.57;;
48727;SDS011;34527;45.618;5.130;2023-12-29T09:26:41;7.95;;;5.57;;
48727;SDS011;34527;45.618;5.130;2023-12-29T09:29:07;10.15;;;5.90;;
48727;SDS011;34527;45.618;5.130;2023-12-29T09:31:32;7.03;;;6.15;;
48727;SDS011;34527;45.618;5.130;2023-12-29T09:33:58;8.80;;;6.22;;
48727;SDS011;34527;45.618;5.130;2023-12-29T09:36:25;7.40;;;5.50;;
48727;SDS011;34527;45.618;5.130;2023-12-29T09:38:51;7.85;;;5.18;;
48727;SDS011;34527;45.618;5.130;2023-12-29T09:41:16;6.50;;;4.88;;
48727;SDS011;34527;45.618;5.130;2023-12-29T09:43:45;7.68;;;5.43;;
48727;SDS011;34527;45.618;5.130;2023-12-29T09:46:19;5.95;;;4.95;;
48727;SDS011;34527;45.618;5.130;2023-12-29T09:48:46;7.80;;;5.18;;
48727;SDS011;34527;45.618;5.130;2023-12-29T09:51:13;7.47;;;4.53;;
48727;SDS011;34527;45.618;5.130;2023-12-29T09:53:40;6.22;;;4.38;;
48727;SDS011;34527;45.618;5.130;2023-12-29T09:56:07;6.32;;;4.93;;
48727;SDS011;34527;45.618;5.130;2023-12-29T09:58:34;5.15;;;4.65;;
48727;SDS011;34527;45.618;5.130;2023-12-29T10:01:03;5.60;;;4.50;;
48727;SDS011;34527;45.618;5.130;2023-12-29T10:03:29;8.27;;;5.38;;
48727;SDS011;34527;45.618;5.130;2023-12-29T10:05:55;8.98;;;6.15;;
48727;SDS011;34527;45.618;5.130;2023-12-29T10:08:24;6.15;;;5.55;;
48727;SDS011;34527;45.618;5.130;2023-12-29T10:10:52;5.60;;;4.80;;
48727;SDS011;34527;45.618;5.130;2023-12-29T10:13:20;7.75;;;4.85;;
48727;SDS011;34527;45.618;5.130;2023-12-29T10:15:49;5.35;;;4.75;;
48727;SDS011;34527;45.618;5.130;2023-12-29T10:18:22;6.53;;;4.75;;
48727;SDS011;34527;45.618;5.130;2023-12-29T10:21:21;5.22;;;4.55;;
48727;SDS011;34527;45.618;5.130;2023-12-29T10:24:02;5.77;;;4.17;;
48727;SDS011;34527;45.618;5.130;2023-12-29T10:26:29;4.60;;;3.83;;
48727;SDS011;34527;45.618;5.130;2023-12-29T10:28:55;4.97;;;4.47;;
48727;SDS011;34527;45.618;5.130;2023-12-29T10:31:22;5.63;;;4.30;;
48727;SDS011;34527;45.618;5.130;2023-12-29T10:33:48;6.90;;;4.20;;
48727;SDS011;34527;45.618;5.130;2023-12-29T10:36:16;5.82;;;4.40;;
48727;SDS011;34527;45.618;5.130;2023-12-29T10:38:42;6.18;;;4.10;;
48727;SDS011;34527;45.618;5.130;2023-12-29T10:41:11;5.20;;;3.95;;
48727;SDS011;34527;45.618;5.130;2023-12-29T10:43:41;5.07;;;4.30;;
48727;SDS011;34527;45.618;5.130;2023-12-29T10:46:11;7.28;;;4.20;;
48727;SDS011;34527;45.618;5.130;2023-12-29T10:48:37;5.55;;;4.32;;
48727;SDS011;34527;45.618;5.130;2023-12-29T10:51:03;5.45;;;4.25;;
48727;SDS011;34527;45.618;5.130;2023-12-29T10:53:32;6.57;;;4.57;;
48727;SDS011;34527;45.618;5.130;2023-12-29T10:55:59;4.85;;;4.20;;
48727;SDS011;34527;45.618;5.130;2023-12-29T10:58:28;7.40;;;4.10;;
48727;SDS011;34527;45.618;5.130;2023-12-29T11:00:57;5.45;;;4.43;;
48727;SDS011;34527;45.618;5.130;2023-12-29T11:03:24;5.95;;;4.05;;
48727;SDS011;34527;45.618;5.130;2023-12-29T11:05:50;4.90;;;4.40;;
48727;SDS011;34527;45.618;5.130;2023-12-29T11:08:23;4.47;;;4.07;;
48727;SDS011;34527;45.618;5.130;2023-12-29T11:10:49;4.43;;;4.03;;
48727;SDS011;34527;45.618;5.130;2023-12-29T11:13:15;5.50;;;4.03;;
48727;SDS011;34527;45.618;5.130;2023-12-29T11:15:42;5.82;;;5.07;;
48727;SDS011;34527;45.618;5.130;2023-12-29T11:18:17;4.35;;;3.95;;
48727;SDS011;34527;45.618;5.130;2023-12-29T11:20:44;10.75;;;5.28;;
48727;SDS011;34527;45.618;5.130;2023-12-29T11:23:10;7.63;;;4.90;;
48727;SDS011;34527;45.618;5.130;2023-12-29T11:25:38;9.40;;;4.82;;
48727;SDS011;34527;45.618;5.130;2023-12-29T11:28:04;5.03;;;3.70;;
48727;SDS011;34527;45.618;5.130;2023-12-29T11:30:35;7.30;;;4.50;;
48727;SDS011;34527;45.618;5.130;2023-12-29T11:38:28;6.82;;;4.32;;
48727;SDS011;34527;45.618;5.130;2023-12-29T11:43:36;4.47;;;3.80;;
48727;SDS011;34527;45.618;5.130;2023-12-29T11:46:02;5.38;;;4.75;;
48727;SDS011;34527;45.618;5.130;2023-12-29T11:54:08;5.82;;;3.70;;
48727;SDS011;34527;45.618;5.130;2023-12-29T11:56:35;4.20;;;3.72;;
48727;SDS011;34527;45.618;5.130;2023-12-29T11:59:15;4.18;;;3.78;;
48727;SDS011;34527;45.618;5.130;2023-12-29T12:01:42;7.22;;;3.70;;
48727;SDS011;34527;45.618;5.130;2023-12-29T12:09:50;5.55;;;4.18;;
48727;SDS011;34527;45.618;5.130;2023-12-29T12:15:30;5.03;;;3.85;;
48727;SDS011;34527;45.618;5.130;2023-12-29T12:17:55;5.20;;;4.10;;
48727;SDS011;34527;45.618;5.130;2023-12-29T12:20:23;4.75;;;4.20;;
48727;SDS011;34527;45.618;5.130;2023-12-29T12:22:55;7.15;;;4.57;;
48727;SDS011;34527;45.618;5.130;2023-12-29T12:25:24;4.40;;;3.65;;
48727;SDS011;34527;45.618;5.130;2023-12-29T12:27:54;4.55;;;3.50;;
48727;SDS011;34527;45.618;5.130;2023-12-29T12:30:21;3.72;;;3.40;;
48727;SDS011;34527;45.618;5.130;2023-12-29T12:32:47;6.70;;;4.30;;
48727;SDS011;34527;45.618;5.130;2023-12-29T12:35:26;6.47;;;4.20;;
48727;SDS011;34527;45.618;5.130;2023-12-29T12:38:10;5.35;;;4.38;;
48727;SDS011;34527;45.618;5.130;2023-12-29T12:40:38;7.10;;;5.50;;
48727;SDS011;34527;45.618;5.130;2023-12-29T12:43:04;6.75;;;4.53;;
48727;SDS011;34527;45.618;5.130;2023-12-29T12:45:33;6.60;;;4.68;;
48727;SDS011;34527;45.618;5.130;2023-12-29T12:48:01;5.35;;;4.57;;
48727;SDS011;34527;45.618;5.130;2023-12-29T12:50:34;5.43;;;4.20;;
48727;SDS011;34527;45.618;5.130;2023-12-29T12:53:00;6.53;;;5.85;;
48727;SDS011;34527;45.618;5.130;2023-12-29T12:55:30;4.40;;;4.00;;
48727;SDS011;34527;45.618;5.130;2023-12-29T12:57:59;4.93;;;4.20;;
48727;SDS011;34527;45.618;5.130;2023-12-29T13:00:25;6.43;;;4.35;;
48727;SDS011;34527;45.618;5.130;2023-12-29T13:02:51;8.90;;;6.60;;
48727;SDS011;34527;45.618;5.130;2023-12-29T13:05:17;13.60;;;8.55;;
48727;SDS011;34527;45.618;5.130;2023-12-29T13:07:43;10.13;;;6.75;;
48727;SDS011;34527;45.618;5.130;2023-12-29T13:10:09;8.75;;;6.78;;
48727;SDS011;34527;45.618;5.130;2023-12-29T13:12:35;6.93;;;5.45;;
48727;SDS011;34527;45.618;5.130;2023-12-29T13:15:07;8.70;;;6.07;;
48727;SDS011;34527;45.618;5.130;2023-12-29T13:17:33;7.07;;;5.53;;
48727;SDS011;34527;45.618;5.130;2023-12-29T13:19:58;8.88;;;6.00;;
48727;SDS011;34527;45.618;5.130;2023-12-29T13:22:24;6.30;;;5.70;;
48727;SDS011;34527;45.618;5.130;2023-12-29T13:24:52;8.25;;;7.25;;
48727;SDS011;34527;45.618;5.130;2023-12-29T13:27:19;10.45;;;6.93;;
48727;SDS011;34527;45.618;5.130;2023-12-29T13:29:45;13.55;;;8.23;;
48727;SDS011;34527;45.618;5.130;2023-12-29T13:34:48;7.40;;;5.90;;
48727;SDS011;34527;45.618;5.130;2023-12-29T13:37:30;6.53;;;5.60;;
48727;SDS011;34527;45.618;5.130;2023-12-29T13:42:34;6.93;;;4.90;;
48727;SDS011;34527;45.618;5.130;2023-12-29T13:45:01;6.55;;;4.55;;
48727;SDS011;34527;45.618;5.130;2023-12-29T13:47:29;8.32;;;5.72;;
48727;SDS011;34527;45.618;5.130;2023-12-29T13:49:56;7.47;;;5.38;;
48727;SDS011;34527;45.618;5.130;2023-12-29T13:52:22;7.65;;;4.55;;
48727;SDS011;34527;45.618;5.130;2023-12-29T13:54:48;5.40;;;4.43;;
48727;SDS011;34527;45.618;5.130;2023-12-29T13:57:14;5.75;;;4.88;;
48727;SDS011;34527;45.618;5.130;2023-12-29T13:59:39;9.40;;;5.70;;
48727;SDS011;34527;45.618;5.130;2023-12-29T14:04:46;4.72;;;4.15;;
48727;SDS011;34527;45.618;5.130;2023-12-29T14:07:12;7.90;;;5.25;;
48727;SDS011;34527;45.618;5.130;2023-12-29T14:09:38;9.25;;;5.72;;
48727;SDS011;34527;45.618;5.130;2023-12-29T14:12:05;6.95;;;4.95;;
48727;SDS011;34527;45.618;5.130;2023-12-29T14:14:31;6.28;;;4.28;;
48727;SDS011;34527;45.618;5.130;2023-12-29T14:16:56;6.18;;;4.38;;
48727;SDS011;34527;45.618;5.130;2023-12-29T14:19:22;9.23;;;6.13;;
48727;SDS011;34527;45.618;5.130;2023-12-29T14:21:54;6.63;;;4.90;;
48727;SDS011;34527;45.618;5.130;2023-12-29T14:24:20;4.95;;;3.95;;
48727;SDS011;34527;45.618;5.130;2023-12-29T14:29:17;4.82;;;3.63;;
48727;SDS011;34527;45.618;5.130;2023-12-29T14:31:44;4.90;;;3.92;;
48727;SDS011;34527;45.618;5.130;2023-12-29T14:34:10;4.90;;;4.00;;
48727;SDS011;34527;45.618;5.130;2023-12-29T14:36:37;4.97;;;3.83;;
48727;SDS011;34527;45.618;5.130;2023-12-29T14:39:07;5.53;;;4.47;;
48727;SDS011;34527;45.618;5.130;2023-12-29T14:41:35;5.22;;;4.15;;
48727;SDS011;34527;45.618;5.130;2023-12-29T14:44:01;4.60;;;4.05;;
48727;SDS011;34527;45.618;5.130;2023-12-29T14:46:26;5.00;;;4.20;;
48727;SDS011;34527;45.618;5.130;2023-12-29T14:48:53;4.95;;;3.80;;
48727;SDS011;34527;45.618;5.130;2023-12-29T14:51:19;4.90;;;3.83;;
48727;SDS011;34527;45.618;5.130;2023-12-29T14:53:45;5.75;;;4.03;;
48727;SDS011;34527;45.618;5.130;2023-12-29T14:56:13;4.68;;;4.05;;
48727;SDS011;34527;45.618;5.130;2023-12-29T14:58:40;4.53;;;3.92;;
48727;SDS011;34527;45.618;5.130;2023-12-29T15:01:05;5.38;;;4.43;;
48727;SDS011;34527;45.618;5.130;2023-12-29T15:03:32;6.63;;;4.20;;
48727;SDS011;34527;45.618;5.130;2023-12-29T15:05:59;7.03;;;4.13;;
48727;SDS011;34527;45.618;5.130;2023-12-29T15:08:25;6.00;;;4.20;;
48727;SDS011;34527;45.618;5.130;2023-12-29T15:10:53;6.70;;;4.40;;
48727;SDS011;34527;45.618;5.130;2023-12-29T15:13:18;5.68;;;3.95;;
48727;SDS011;34527;45.618;5.130;2023-12-29T15:15:44;6.30;;;4.43;;
48727;SDS011;34527;45.618;5.130;2023-12-29T15:18:10;4.30;;;3.90;;
48727;SDS011;34527;45.618;5.130;2023-12-29T15:20:35;5.78;;;4.90;;